createdAt,value
2022-08-30T00:02:21.243Z,14.54
2022-08-30T00:07:22.788Z,14.43
2022-08-30T00:12:24.129Z,14.37
2022-08-30T00:17:25.567Z,14.30
2022-08-30T00:22:26.901Z,14.17
2022-08-30T00:27:28.532Z,14.08
2022-08-30T00:32:29.867Z,14.04
2022-08-30T00:37:31.237Z,13.93
2022-08-30T00:42:32.984Z,13.79
2022-08-30T00:47:34.586Z,13.69
2022-08-30T00:52:38.221Z,13.57
2022-08-30T00:57:41.594Z,13.47
2022-08-30T01:02:43.132Z,13.33
2022-08-30T01:07:44.615Z,13.23
2022-08-30T01:12:46.475Z,13.25
2022-08-30T01:17:48.006Z,13.22
2022-08-30T01:22:50.187Z,13.10
2022-08-30T01:28:01.571Z,12.98
2022-08-30T01:33:04.144Z,12.77
2022-08-30T01:38:05.605Z,12.73
2022-08-30T01:43:07.392Z,12.73
2022-08-30T01:48:09.003Z,12.78
2022-08-30T01:53:15.153Z,12.68
2022-08-30T01:58:16.577Z,12.48
2022-08-30T02:03:18.124Z,12.42
2022-08-30T02:08:19.602Z,12.32
2022-08-30T02:13:20.942Z,12.26
2022-08-30T02:18:23.146Z,12.28
2022-08-30T02:23:24.484Z,12.23
2022-08-30T02:28:25.888Z,12.16
2022-08-30T02:33:27.439Z,12.10
2022-08-30T02:38:29.582Z,12.03
2022-08-30T02:43:31.018Z,12.02
2022-08-30T02:48:32.406Z,11.96
2022-08-30T02:53:33.780Z,11.88
2022-08-30T02:58:35.423Z,11.77
2022-08-30T03:03:36.780Z,11.79
2022-08-30T03:08:38.315Z,11.82
2022-08-30T03:13:39.726Z,11.75
2022-08-30T03:18:43.116Z,11.74
2022-08-30T03:23:44.459Z,11.76
2022-08-30T03:28:45.834Z,11.76
2022-08-30T03:33:47.185Z,11.74
2022-08-30T03:38:48.549Z,11.61
2022-08-30T03:43:50.266Z,11.48
2022-08-30T03:48:52.384Z,11.45
2022-08-30T03:53:53.759Z,11.43
2022-08-30T03:58:55.151Z,11.54
2022-08-30T04:03:56.817Z,11.52
2022-08-30T04:08:58.157Z,11.54
2022-08-30T04:13:59.541Z,11.55
2022-08-30T04:19:00.866Z,11.64
2022-08-30T04:24:02.590Z,11.73
2022-08-30T04:29:04.490Z,11.75
2022-08-30T04:34:05.855Z,11.83
2022-08-30T04:39:07.435Z,11.86
2022-08-30T04:44:08.826Z,11.82
2022-08-30T04:49:15.754Z,11.80
2022-08-30T04:54:17.107Z,11.71
2022-08-30T04:59:18.498Z,11.72
2022-08-30T05:04:19.830Z,11.75
2022-08-30T05:09:21.690Z,11.72
2022-08-30T05:14:23.084Z,11.76
2022-08-30T05:19:24.496Z,11.82
2022-08-30T05:24:26.014Z,12.02
2022-08-30T05:29:27.807Z,12.33
2022-08-30T05:34:29.881Z,12.46
2022-08-30T05:39:45.959Z,12.80
2022-08-30T05:44:53.705Z,13.13
2022-08-30T05:49:55.033Z,13.49
2022-08-30T05:55:00.114Z,13.75
2022-08-30T06:00:02.179Z,14.18
2022-08-30T06:05:05.110Z,14.70
2022-08-30T06:10:07.440Z,14.86
2022-08-30T06:15:09.027Z,15.19
2022-08-30T06:20:10.754Z,17.03
2022-08-30T06:25:12.286Z,18.83
2022-08-30T06:30:13.814Z,19.02
2022-08-30T06:35:15.150Z,19.00
2022-08-30T06:40:18.281Z,20.54
2022-08-30T06:45:20.510Z,19.89
2022-08-30T06:50:21.872Z,21.60
2022-08-30T06:55:23.696Z,21.76
2022-08-30T07:00:25.145Z,22.76
2022-08-30T07:05:26.555Z,21.95
2022-08-30T07:10:27.908Z,21.20
2022-08-30T07:15:29.251Z,21.02
2022-08-30T07:20:40.001Z,24.21
2022-08-30T07:25:42.228Z,23.10
2022-08-30T07:30:43.694Z,24.34
2022-08-30T07:35:45.072Z,25.53
2022-08-30T07:40:46.494Z,26.03
2022-08-30T07:45:47.892Z,25.68
2022-08-30T07:50:51.627Z,24.98
2022-08-30T07:55:55.026Z,25.98
2022-08-30T08:00:59.397Z,26.04
2022-08-30T08:06:01.825Z,28.71
2022-08-30T08:11:07.910Z,27.40
2022-08-30T08:16:09.439Z,30.09
2022-08-30T08:21:11.522Z,31.74
2022-08-30T08:26:12.886Z,29.78
2022-08-30T08:31:18.682Z,29.50
2022-08-30T08:36:20.127Z,30.56
2022-08-30T08:41:30.548Z,31.41
2022-08-30T08:46:41.042Z,32.00
2022-08-30T08:52:05.671Z,31.86
2022-08-30T08:57:07.087Z,31.83
2022-08-30T09:02:23.041Z,31.85
2022-08-30T09:07:26.314Z,33.65
2022-08-30T09:12:27.996Z,33.78
2022-08-30T09:17:29.754Z,32.82
2022-08-30T09:22:32.776Z,31.13
2022-08-30T09:27:38.999Z,32.39
2022-08-30T09:32:42.338Z,31.67
2022-08-30T09:37:57.886Z,33.60
2022-08-30T09:43:01.292Z,34.16
2022-08-30T09:48:21.537Z,33.51
2022-08-30T09:53:25.419Z,33.70
2022-08-30T09:58:35.516Z,34.74
2022-08-30T10:03:40.804Z,32.12
2022-08-30T10:08:48.403Z,33.31
2022-08-30T10:14:02.676Z,34.71
2022-08-30T10:19:10.452Z,31.84
2022-08-30T10:24:14.067Z,33.85
2022-08-30T10:29:25.631Z,31.97
2022-08-30T10:34:29.432Z,33.55
2022-08-30T10:39:46.212Z,35.72
2022-08-30T10:45:01.325Z,36.55
2022-08-30T10:50:21.577Z,32.95
2022-08-30T10:55:28.942Z,35.17
2022-08-30T11:00:36.095Z,34.82
2022-08-30T11:05:41.934Z,33.93
2022-08-30T11:10:49.555Z,34.59
2022-08-30T11:16:04.873Z,37.08
2022-08-30T11:21:25.074Z,37.31
2022-08-30T11:26:45.305Z,36.52
2022-08-30T11:31:47.529Z,35.81
2022-08-30T11:36:51.755Z,34.83
2022-08-30T11:42:10.781Z,34.46
2022-08-30T11:47:31.530Z,35.79
2022-08-30T11:52:41.436Z,36.17
2022-08-30T11:57:49.894Z,36.01
2022-08-30T12:02:58.377Z,35.72
2022-08-30T12:08:01.950Z,33.21
2022-08-30T12:13:03.364Z,33.85
2022-08-30T12:18:28.028Z,33.79
2022-08-30T12:23:30.209Z,34.21
2022-08-30T12:28:31.563Z,33.81
2022-08-30T12:33:41.337Z,33.37
2022-08-30T12:38:43.238Z,33.08
2022-08-30T12:43:49.195Z,33.21
2022-08-30T12:48:51.343Z,33.25
2022-08-30T12:53:52.743Z,34.04
2022-08-30T12:58:54.303Z,34.04
2022-08-30T13:04:20.026Z,33.77
2022-08-30T13:09:24.047Z,33.67
2022-08-30T13:14:35.134Z,33.62
2022-08-30T13:19:39.540Z,33.83
2022-08-30T13:24:42.042Z,33.49
2022-08-30T13:29:43.488Z,32.26
2022-08-30T13:34:45.424Z,30.91
2022-08-30T13:39:46.792Z,29.93
2022-08-30T13:44:48.216Z,29.86
2022-08-30T13:49:49.560Z,29.50
2022-08-30T13:54:51.786Z,29.83
2022-08-30T13:59:53.363Z,31.04
2022-08-30T14:04:55.165Z,31.39
2022-08-30T14:10:30.489Z,31.44
2022-08-30T14:15:19.595Z,31.77
2022-08-30T14:20:20.948Z,31.35
2022-08-30T14:25:22.464Z,30.87
2022-08-30T14:30:23.839Z,30.73
2022-08-30T14:35:25.189Z,30.84
2022-08-30T14:40:26.940Z,30.97
2022-08-30T14:45:28.397Z,29.89
2022-08-30T14:50:30.205Z,30.07
2022-08-30T14:55:32.329Z,30.44
2022-08-30T15:00:33.759Z,30.58
2022-08-30T15:05:37.219Z,30.78
2022-08-30T15:10:40.217Z,30.71
2022-08-30T15:15:44.291Z,30.55
2022-08-30T15:20:49.379Z,30.35
2022-08-30T15:25:50.724Z,29.92
2022-08-30T15:30:52.145Z,29.52
2022-08-30T15:35:53.503Z,29.17
2022-08-30T15:40:56.056Z,29.25
2022-08-30T15:45:57.673Z,28.90
2022-08-30T15:50:59.012Z,28.90
2022-08-30T15:56:00.954Z,28.80
2022-08-30T16:01:04.888Z,28.39
2022-08-30T16:06:10.408Z,28.49
2022-08-30T16:11:13.512Z,28.49
2022-08-30T16:16:15.304Z,28.28
2022-08-30T16:21:18.822Z,27.99
2022-08-30T16:26:21.077Z,27.93
2022-08-30T16:31:23.965Z,27.74
2022-08-30T16:36:27.861Z,27.50
2022-08-30T16:41:29.483Z,27.35
2022-08-30T16:46:34.792Z,27.24
2022-08-30T16:51:36.999Z,27.15
2022-08-30T16:56:38.448Z,27.12
2022-08-30T17:01:42.186Z,26.96
2022-08-30T17:06:43.841Z,26.91
2022-08-30T17:11:45.249Z,26.89
2022-08-30T17:16:46.590Z,26.65
2022-08-30T17:21:47.948Z,26.40
2022-08-30T17:26:50.459Z,26.14
2022-08-30T17:31:51.972Z,25.85
2022-08-30T17:36:54.887Z,25.61
2022-08-30T17:41:56.440Z,25.32
2022-08-30T17:46:59.000Z,25.04
2022-08-30T17:52:01.193Z,24.78
2022-08-30T17:57:10.837Z,24.47
2022-08-30T18:02:13.384Z,24.19
2022-08-30T18:07:18.179Z,23.90
2022-08-30T18:12:22.135Z,23.66
2022-08-30T18:17:23.496Z,23.56
2022-08-30T18:22:24.867Z,23.54
2022-08-30T18:27:28.292Z,23.25
2022-08-30T18:32:35.277Z,22.90
2022-08-30T18:37:39.541Z,22.62
2022-08-30T18:42:41.100Z,22.50
2022-08-30T18:47:42.692Z,22.31
2022-08-30T18:52:44.984Z,22.16
2022-08-30T18:57:46.588Z,21.97
2022-08-30T19:02:47.960Z,21.75
2022-08-30T19:07:50.182Z,21.54
2022-08-30T19:12:56.471Z,21.49
2022-08-30T19:17:58.322Z,21.42
2022-08-30T19:23:10.001Z,21.36
2022-08-30T19:28:12.137Z,21.30
2022-08-30T19:33:14.053Z,21.23
2022-08-30T19:38:15.800Z,21.26
2022-08-30T19:43:17.477Z,21.21
2022-08-30T19:48:22.270Z,21.16
2022-08-30T19:53:24.554Z,21.10
2022-08-30T19:58:26.123Z,21.04
2022-08-30T20:03:27.735Z,21.01
2022-08-30T20:08:29.071Z,21.00
2022-08-30T20:13:30.411Z,21.08
2022-08-30T20:18:36.501Z,21.47
2022-08-30T20:23:38.618Z,21.47
2022-08-30T20:28:44.926Z,21.36
2022-08-30T20:33:46.278Z,21.17
2022-08-30T20:38:48.469Z,20.93
2022-08-30T20:43:51.755Z,20.82
2022-08-30T20:48:53.156Z,20.73
2022-08-30T20:53:55.597Z,20.61
2022-08-30T20:58:57.418Z,20.61
2022-08-30T21:03:59.741Z,20.47
2022-08-30T21:09:02.095Z,20.40
2022-08-30T21:14:03.786Z,20.41
2022-08-30T21:19:05.186Z,20.15
2022-08-30T21:24:09.462Z,20.11
2022-08-30T21:29:11.984Z,20.13
2022-08-30T21:34:17.227Z,20.12
2022-08-30T21:39:18.898Z,20.04
2022-08-30T21:44:20.909Z,19.96
2022-08-30T21:49:23.353Z,19.94
2022-08-30T21:54:25.550Z,19.90
2022-08-30T21:59:33.026Z,19.88
2022-08-30T22:04:34.604Z,19.87
2022-08-30T22:09:36.170Z,19.93
2022-08-30T22:14:37.518Z,19.90
2022-08-30T22:19:38.845Z,19.94
2022-08-30T22:24:40.401Z,19.90
2022-08-30T22:29:41.797Z,20.09
2022-08-30T22:34:44.862Z,19.99
2022-08-30T22:39:46.201Z,20.04
2022-08-30T22:44:48.368Z,19.90
2022-08-30T22:49:49.767Z,19.64
2022-08-30T22:54:51.359Z,19.61
2022-08-30T22:59:52.716Z,19.58
2022-08-30T23:04:54.138Z,19.67
2022-08-30T23:09:57.556Z,19.58
2022-08-30T23:14:58.904Z,19.53
2022-08-30T23:20:00.311Z,19.52
2022-08-30T23:25:20.388Z,19.55
2022-08-30T23:30:40.480Z,19.61
2022-08-30T23:36:00.267Z,19.59
2022-08-30T23:41:20.323Z,19.57
2022-08-30T23:46:40.803Z,19.68
2022-08-30T23:52:00.852Z,19.49
2022-08-30T23:57:20.581Z,19.42
